createdAt,value
2023-05-09T00:00:23.937Z,0.00
2023-05-09T00:10:24.431Z,0.00
2023-05-09T00:20:29.939Z,0.00
2023-05-09T00:30:25.420Z,0.00
2023-05-09T00:40:26.178Z,0.00
2023-05-09T00:50:26.689Z,0.00
2023-05-09T01:00:27.339Z,0.00
2023-05-09T01:10:27.833Z,0.00
2023-05-09T01:20:28.535Z,0.00
2023-05-09T01:30:29.030Z,0.00
2023-05-09T01:40:29.691Z,0.00
2023-05-09T01:50:30.186Z,0.00
2023-05-09T02:00:30.895Z,0.00
2023-05-09T02:10:31.390Z,0.00
2023-05-09T02:20:32.567Z,0.00
2023-05-09T02:30:32.551Z,0.00
2023-05-09T02:40:33.160Z,0.00
2023-05-09T02:50:33.639Z,0.00
2023-05-09T03:00:34.259Z,0.00
2023-05-09T03:10:34.688Z,0.00
2023-05-09T03:20:35.302Z,0.00
2023-05-09T03:30:35.769Z,5.62
2023-05-09T03:40:36.352Z,11.25
2023-05-09T03:50:36.784Z,16.88
2023-05-09T04:00:44.409Z,22.50
2023-05-09T04:10:37.825Z,28.12
2023-05-09T04:20:38.430Z,33.75
2023-05-09T04:30:38.865Z,39.38
2023-05-09T04:40:39.490Z,50.62
2023-05-09T04:50:39.944Z,129.38
2023-05-09T05:00:40.546Z,146.25
2023-05-09T05:10:40.986Z,151.88
2023-05-09T05:20:42.861Z,157.50
2023-05-09T05:30:42.437Z,157.50
2023-05-09T05:40:48.178Z,112.50
2023-05-09T05:50:43.650Z,90.00
2023-05-09T06:00:44.248Z,90.00
2023-05-09T06:10:44.747Z,95.62
2023-05-09T06:20:45.314Z,95.62
2023-05-09T06:30:45.770Z,90.00
2023-05-09T06:40:46.381Z,101.25
2023-05-09T06:50:46.825Z,101.25
2023-05-09T07:00:47.482Z,106.88
2023-05-09T07:10:47.981Z,112.50
2023-05-09T07:20:48.595Z,123.75
2023-05-09T07:30:49.043Z,129.38
2023-05-09T07:40:49.667Z,135.00
2023-05-09T07:50:50.114Z,140.62
2023-05-09T08:00:50.745Z,146.25
2023-05-09T08:10:51.202Z,146.25
2023-05-09T08:20:51.832Z,168.75
2023-05-09T08:30:52.433Z,174.38
2023-05-09T08:40:53.047Z,185.62
2023-05-09T08:50:53.518Z,191.25
2023-05-09T09:00:54.144Z,202.50
2023-05-09T09:10:54.689Z,208.12
2023-05-09T09:20:55.287Z,213.75
2023-05-09T09:30:55.748Z,213.75
2023-05-09T09:40:56.415Z,225.00
2023-05-09T09:50:56.947Z,241.88
2023-05-09T10:00:57.603Z,241.88
2023-05-09T10:11:05.064Z,264.38
2023-05-09T10:20:58.645Z,253.12
2023-05-09T10:30:59.109Z,281.25
2023-05-09T10:40:59.704Z,264.38
2023-05-09T10:51:00.150Z,264.38
2023-05-09T11:01:00.769Z,270.00
2023-05-09T11:11:01.198Z,275.62
2023-05-09T11:21:01.822Z,275.62
2023-05-09T11:31:02.259Z,275.62
2023-05-09T11:41:02.957Z,270.00
2023-05-09T11:51:03.399Z,275.62
2023-05-09T12:01:03.995Z,275.62
2023-05-09T12:11:04.421Z,270.00
2023-05-09T12:21:05.029Z,270.00
2023-05-09T12:31:05.497Z,264.38
2023-05-09T12:41:06.769Z,264.38
2023-05-09T12:51:06.745Z,264.38
2023-05-09T13:01:07.361Z,247.50
2023-05-09T13:11:15.622Z,241.88
2023-05-09T13:21:09.791Z,236.25
2023-05-09T13:31:09.249Z,225.00
2023-05-09T13:41:09.835Z,219.38
2023-05-09T13:51:10.279Z,213.75
2023-05-09T14:01:10.796Z,202.50
2023-05-09T14:11:11.390Z,196.88
2023-05-09T14:21:12.005Z,191.25
2023-05-09T14:31:12.476Z,185.62
2023-05-09T14:41:13.059Z,180.00
2023-05-09T14:51:13.494Z,163.12
2023-05-09T15:01:14.200Z,157.50
2023-05-09T15:11:14.816Z,151.88
2023-05-09T15:21:15.432Z,146.25
2023-05-09T15:31:15.863Z,118.12
2023-05-09T15:41:16.454Z,112.50
2023-05-09T15:51:16.906Z,106.88
2023-05-09T16:01:17.529Z,95.62
2023-05-09T16:11:17.967Z,90.00
2023-05-09T16:21:25.662Z,84.38
2023-05-09T16:31:19.124Z,78.75
2023-05-09T16:41:19.714Z,67.50
2023-05-09T16:51:20.154Z,67.50
2023-05-09T17:01:20.807Z,56.25
2023-05-09T17:11:21.264Z,56.25
2023-05-09T17:21:21.871Z,50.62
2023-05-09T17:31:22.398Z,45.00
2023-05-09T17:41:23.018Z,39.38
2023-05-09T17:51:23.463Z,28.12
2023-05-09T18:01:24.112Z,22.50
2023-05-09T18:11:24.577Z,16.88
2023-05-09T18:21:25.181Z,11.25
2023-05-09T18:31:25.731Z,5.62
2023-05-09T18:41:27.551Z,0.00
2023-05-09T18:51:27.032Z,0.00
2023-05-09T19:01:27.924Z,0.00
2023-05-09T19:11:28.418Z,0.00
2023-05-09T19:21:29.011Z,0.00
2023-05-09T19:31:29.606Z,0.00
2023-05-09T19:41:30.194Z,0.00
2023-05-09T19:51:30.746Z,0.00
2023-05-09T20:01:31.470Z,0.00
2023-05-09T20:11:32.152Z,0.00
2023-05-09T20:21:32.764Z,0.00
2023-05-09T20:31:33.543Z,0.00
2023-05-09T20:41:34.089Z,0.00
2023-05-09T20:51:34.631Z,0.00
2023-05-09T21:01:35.296Z,0.00
2023-05-09T21:11:35.824Z,0.00
2023-05-09T21:21:36.427Z,0.00
2023-05-09T21:31:37.049Z,0.00
2023-05-09T21:41:37.688Z,0.00
2023-05-09T21:51:38.196Z,0.00
2023-05-09T22:01:38.997Z,0.00
2023-05-09T22:11:39.605Z,0.00
2023-05-09T22:21:47.177Z,0.00
2023-05-09T22:31:40.709Z,0.00
2023-05-09T22:41:41.258Z,0.00
2023-05-09T22:51:41.775Z,0.00
2023-05-09T23:01:42.485Z,0.00
2023-05-09T23:11:43.009Z,0.00
2023-05-09T23:21:43.633Z,0.00
2023-05-09T23:31:44.214Z,0.00
2023-05-09T23:41:44.780Z,0.00
2023-05-09T23:51:45.285Z,0.00
